sensor_id;sensor_type;location;lat;lon;timestamp;pressure;altitude;pressure_sealevel;temperature;humidity
53440;BME280;39333;47.044;15.080;2023-02-04T00:00:16;96211.53;;;6.52;67.60
53440;BME280;39333;47.044;15.080;2023-02-04T00:02:43;96217.31;;;6.43;68.57
53440;BME280;39333;47.044;15.080;2023-02-04T00:05:11;96217.00;;;6.32;68.73
53440;BME280;39333;47.044;15.080;2023-02-04T00:07:40;96196.78;;;6.26;69.29
53440;BME280;39333;47.044;15.080;2023-02-04T00:10:07;96211.47;;;6.16;70.14
53440;BME280;39333;47.044;15.080;2023-02-04T00:12:35;96198.16;;;6.04;70.53
53440;BME280;39333;47.044;15.080;2023-02-04T00:15:03;96185.06;;;5.97;70.77
53440;BME280;39333;47.044;15.080;2023-02-04T00:17:30;96188.97;;;5.88;71.39
53440;BME280;39333;47.044;15.080;2023-02-04T00:19:57;96175.63;;;5.83;71.33
53440;BME280;39333;47.044;15.080;2023-02-04T00:22:24;96192.66;;;5.74;71.73
53440;BME280;39333;47.044;15.080;2023-02-04T00:24:53;96184.22;;;5.66;72.17
53440;BME280;39333;47.044;15.080;2023-02-04T00:27:21;96179.38;;;5.62;71.38
53440;BME280;39333;47.044;15.080;2023-02-04T00:29:48;96203.69;;;5.58;71.94
53440;BME280;39333;47.044;15.080;2023-02-04T00:32:14;96216.66;;;5.53;71.63
53440;BME280;39333;47.044;15.080;2023-02-04T00:34:45;96220.81;;;5.36;73.19
53440;BME280;39333;47.044;15.080;2023-02-04T00:37:12;96197.56;;;5.33;72.77
53440;BME280;39333;47.044;15.080;2023-02-04T00:39:39;96209.34;;;5.55;69.97
53440;BME280;39333;47.044;15.080;2023-02-04T00:42:06;96202.88;;;5.57;69.60
53440;BME280;39333;47.044;15.080;2023-02-04T00:44:34;96194.03;;;5.52;69.88
53440;BME280;39333;47.044;15.080;2023-02-04T00:47:03;96189.19;;;5.49;69.85
53440;BME280;39333;47.044;15.080;2023-02-04T00:49:30;96197.50;;;5.39;70.29
53440;BME280;39333;47.044;15.080;2023-02-04T00:51:57;96207.47;;;5.31;70.11
53440;BME280;39333;47.044;15.080;2023-02-04T00:54:24;96209.47;;;5.35;69.77
53440;BME280;39333;47.044;15.080;2023-02-04T00:56:51;96211.09;;;5.30;69.51
53440;BME280;39333;47.044;15.080;2023-02-04T00:59:18;96216.38;;;5.23;69.71
53440;BME280;39333;47.044;15.080;2023-02-04T01:01:46;96230.94;;;5.25;69.19
53440;BME280;39333;47.044;15.080;2023-02-04T01:04:13;96232.13;;;5.30;69.03
53440;BME280;39333;47.044;15.080;2023-02-04T01:06:40;96231.94;;;5.24;69.08
53440;BME280;39333;47.044;15.080;2023-02-04T01:09:08;96236.63;;;5.16;68.99
53440;BME280;39333;47.044;15.080;2023-02-04T01:11:35;96228.00;;;5.02;69.49
53440;BME280;39333;47.044;15.080;2023-02-04T01:14:03;96227.19;;;4.95;69.63
53440;BME280;39333;47.044;15.080;2023-02-04T01:16:30;96215.88;;;4.88;69.56
53440;BME280;39333;47.044;15.080;2023-02-04T01:19:00;96229.97;;;5.07;67.26
53440;BME280;39333;47.044;15.080;2023-02-04T01:21:27;96225.06;;;5.23;65.85
53440;BME280;39333;47.044;15.080;2023-02-04T01:23:59;96221.97;;;5.40;64.77
53440;BME280;39333;47.044;15.080;2023-02-04T01:26:26;96219.28;;;5.53;64.34
53440;BME280;39333;47.044;15.080;2023-02-04T01:28:53;96211.63;;;5.51;64.58
53440;BME280;39333;47.044;15.080;2023-02-04T01:31:20;96207.19;;;5.45;65.25
53440;BME280;39333;47.044;15.080;2023-02-04T01:33:47;96210.84;;;5.38;65.37
53440;BME280;39333;47.044;15.080;2023-02-04T01:36:14;96212.09;;;5.35;64.62
53440;BME280;39333;47.044;15.080;2023-02-04T01:38:48;96211.06;;;5.36;64.21
53440;BME280;39333;47.044;15.080;2023-02-04T01:41:16;96210.69;;;5.33;64.33
53440;BME280;39333;47.044;15.080;2023-02-04T01:43:45;96212.31;;;5.27;63.34
53440;BME280;39333;47.044;15.080;2023-02-04T01:46:12;96219.75;;;5.43;61.83
53440;BME280;39333;47.044;15.080;2023-02-04T01:48:39;96205.81;;;5.36;64.18
53440;BME280;39333;47.044;15.080;2023-02-04T01:51:14;96219.22;;;5.21;65.55
53440;BME280;39333;47.044;15.080;2023-02-04T01:53:42;96218.63;;;5.19;64.82
53440;BME280;39333;47.044;15.080;2023-02-04T01:56:21;96220.81;;;5.36;64.11
53440;BME280;39333;47.044;15.080;2023-02-04T01:58:48;96218.59;;;5.26;65.00
53440;BME280;39333;47.044;15.080;2023-02-04T02:04:00;96234.81;;;5.16;64.90
53440;BME280;39333;47.044;15.080;2023-02-04T02:06:27;96247.75;;;5.18;64.46
53440;BME280;39333;47.044;15.080;2023-02-04T02:08:55;96248.13;;;5.28;63.70
53440;BME280;39333;47.044;15.080;2023-02-04T02:11:25;96237.06;;;5.57;61.98
53440;BME280;39333;47.044;15.080;2023-02-04T02:13:52;96237.03;;;5.64;62.47
53440;BME280;39333;47.044;15.080;2023-02-04T02:16:20;96243.13;;;5.58;61.81
53440;BME280;39333;47.044;15.080;2023-02-04T02:18:48;96226.53;;;5.57;61.76
53440;BME280;39333;47.044;15.080;2023-02-04T02:21:20;96234.81;;;5.61;61.49
53440;BME280;39333;47.044;15.080;2023-02-04T02:23:52;96231.19;;;5.62;61.20
53440;BME280;39333;47.044;15.080;2023-02-04T02:26:20;96233.22;;;5.60;61.54
53440;BME280;39333;47.044;15.080;2023-02-04T02:28:49;96240.31;;;5.53;62.11
53440;BME280;39333;47.044;15.080;2023-02-04T02:31:19;96249.44;;;5.50;61.72
53440;BME280;39333;47.044;15.080;2023-02-04T02:33:46;96248.44;;;5.51;61.32
53440;BME280;39333;47.044;15.080;2023-02-04T02:36:16;96238.28;;;5.55;61.21
53440;BME280;39333;47.044;15.080;2023-02-04T02:38:43;96232.88;;;5.50;60.89
53440;BME280;39333;47.044;15.080;2023-02-04T02:41:10;96217.50;;;5.47;60.86
53440;BME280;39333;47.044;15.080;2023-02-04T02:43:38;96221.34;;;5.44;60.86
53440;BME280;39333;47.044;15.080;2023-02-04T02:46:05;96221.34;;;5.44;60.65
53440;BME280;39333;47.044;15.080;2023-02-04T02:48:32;96225.34;;;5.53;60.50
53440;BME280;39333;47.044;15.080;2023-02-04T02:51:02;96230.84;;;5.52;60.73
53440;BME280;39333;47.044;15.080;2023-02-04T02:53:30;96221.56;;;5.43;61.11
53440;BME280;39333;47.044;15.080;2023-02-04T02:55:57;96225.00;;;5.37;61.82
53440;BME280;39333;47.044;15.080;2023-02-04T02:58:32;96220.47;;;5.57;60.43
53440;BME280;39333;47.044;15.080;2023-02-04T03:01:07;96215.63;;;5.54;60.29
53440;BME280;39333;47.044;15.080;2023-02-04T03:03:44;96223.19;;;5.44;60.60
53440;BME280;39333;47.044;15.080;2023-02-04T03:06:19;96227.06;;;5.35;61.14
53440;BME280;39333;47.044;15.080;2023-02-04T03:08:50;96235.31;;;5.38;60.11
53440;BME280;39333;47.044;15.080;2023-02-04T03:11:21;96232.88;;;5.43;59.20
53440;BME280;39333;47.044;15.080;2023-02-04T03:13:49;96236.53;;;5.42;59.78
53440;BME280;39333;47.044;15.080;2023-02-04T03:16:17;96236.50;;;5.49;58.71
53440;BME280;39333;47.044;15.080;2023-02-04T03:18:46;96227.75;;;5.61;57.69
53440;BME280;39333;47.044;15.080;2023-02-04T03:21:13;96231.56;;;5.66;58.07
53440;BME280;39333;47.044;15.080;2023-02-04T03:23:45;96227.78;;;5.55;58.50
53440;BME280;39333;47.044;15.080;2023-02-04T03:26:13;96230.41;;;5.55;58.05
53440;BME280;39333;47.044;15.080;2023-02-04T03:28:40;96227.97;;;5.53;58.34
53440;BME280;39333;47.044;15.080;2023-02-04T03:31:08;96233.47;;;5.52;57.84
53440;BME280;39333;47.044;15.080;2023-02-04T03:33:35;96245.16;;;5.56;57.77
53440;BME280;39333;47.044;15.080;2023-02-04T03:36:02;96246.19;;;5.55;58.30
53440;BME280;39333;47.044;15.080;2023-02-04T03:38:32;96248.66;;;5.50;58.94
53440;BME280;39333;47.044;15.080;2023-02-04T03:41:00;96259.97;;;5.50;58.80
53440;BME280;39333;47.044;15.080;2023-02-04T03:43:27;96267.47;;;5.40;60.15
53440;BME280;39333;47.044;15.080;2023-02-04T03:45:54;96255.19;;;5.34;60.78
53440;BME280;39333;47.044;15.080;2023-02-04T03:48:21;96272.16;;;5.32;61.21
53440;BME280;39333;47.044;15.080;2023-02-04T03:50:47;96277.03;;;5.28;61.40
53440;BME280;39333;47.044;15.080;2023-02-04T03:53:14;96284.31;;;5.26;61.78
53440;BME280;39333;47.044;15.080;2023-02-04T03:55:41;96282.69;;;5.25;61.55
53440;BME280;39333;47.044;15.080;2023-02-04T03:58:11;96284.34;;;5.19;61.69
53440;BME280;39333;47.044;15.080;2023-02-04T04:00:39;96287.94;;;5.25;60.49
53440;BME280;39333;47.044;15.080;2023-02-04T04:03:05;96289.16;;;5.22;61.16
53440;BME280;39333;47.044;15.080;2023-02-04T04:05:32;96281.53;;;5.14;60.96
53440;BME280;39333;47.044;15.080;2023-02-04T04:07:59;96283.13;;;5.15;60.56
53440;BME280;39333;47.044;15.080;2023-02-04T04:10:26;96288.16;;;5.23;59.27
53440;BME280;39333;47.044;15.080;2023-02-04T04:12:55;96277.25;;;5.26;59.30
53440;BME280;39333;47.044;15.080;2023-02-04T04:15:23;96276.84;;;5.23;59.68
53440;BME280;39333;47.044;15.080;2023-02-04T04:17:50;96277.06;;;5.15;59.67
53440;BME280;39333;47.044;15.080;2023-02-04T04:20:17;96284.31;;;5.33;57.89
53440;BME280;39333;47.044;15.080;2023-02-04T04:22:44;96280.22;;;5.43;56.65
53440;BME280;39333;47.044;15.080;2023-02-04T04:25:11;96291.94;;;5.47;56.12
53440;BME280;39333;47.044;15.080;2023-02-04T04:27:38;96304.88;;;5.49;57.19
53440;BME280;39333;47.044;15.080;2023-02-04T04:30:05;96295.38;;;5.41;58.07
53440;BME280;39333;47.044;15.080;2023-02-04T04:32:32;96318.66;;;5.38;57.34
53440;BME280;39333;47.044;15.080;2023-02-04T04:34:59;96328.34;;;5.37;57.48
53440;BME280;39333;47.044;15.080;2023-02-04T04:37:26;96322.53;;;5.35;57.85
53440;BME280;39333;47.044;15.080;2023-02-04T04:39:53;96325.56;;;5.25;58.88
53440;BME280;39333;47.044;15.080;2023-02-04T04:42:20;96336.69;;;5.21;59.54
53440;BME280;39333;47.044;15.080;2023-02-04T04:44:47;96327.63;;;5.17;58.84
53440;BME280;39333;47.044;15.080;2023-02-04T04:47:14;96338.09;;;5.23;58.38
53440;BME280;39333;47.044;15.080;2023-02-04T04:49:41;96330.44;;;5.15;59.40
53440;BME280;39333;47.044;15.080;2023-02-04T04:52:08;96342.97;;;5.13;58.94
53440;BME280;39333;47.044;15.080;2023-02-04T04:54:36;96341.16;;;5.07;58.81
53440;BME280;39333;47.044;15.080;2023-02-04T04:57:03;96342.78;;;5.08;58.33
53440;BME280;39333;47.044;15.080;2023-02-04T04:59:30;96346.63;;;5.06;59.00
53440;BME280;39333;47.044;15.080;2023-02-04T05:01:56;96354.53;;;4.99;59.03
53440;BME280;39333;47.044;15.080;2023-02-04T05:04:23;96361.19;;;4.95;59.02
53440;BME280;39333;47.044;15.080;2023-02-04T05:06:50;96359.56;;;4.94;59.41
53440;BME280;39333;47.044;15.080;2023-02-04T05:09:17;96364.81;;;4.87;59.16
53440;BME280;39333;47.044;15.080;2023-02-04T05:11:44;96373.72;;;4.86;59.62
53440;BME280;39333;47.044;15.080;2023-02-04T05:14:12;96379.38;;;4.77;60.53
53440;BME280;39333;47.044;15.080;2023-02-04T05:16:39;96375.31;;;4.74;60.97
53440;BME280;39333;47.044;15.080;2023-02-04T05:19:06;96390.09;;;4.69;61.17
53440;BME280;39333;47.044;15.080;2023-02-04T05:21:33;96408.66;;;4.67;60.62
53440;BME280;39333;47.044;15.080;2023-02-04T05:24:00;96400.59;;;4.69;60.16
53440;BME280;39333;47.044;15.080;2023-02-04T05:26:27;96399.34;;;4.71;60.37
53440;BME280;39333;47.044;15.080;2023-02-04T05:28:57;96384.22;;;4.73;59.06
53440;BME280;39333;47.044;15.080;2023-02-04T05:31:26;96397.38;;;4.86;57.94
53440;BME280;39333;47.044;15.080;2023-02-04T05:33:53;96410.06;;;4.76;58.07
53440;BME280;39333;47.044;15.080;2023-02-04T05:36:20;96418.78;;;4.83;56.90
53440;BME280;39333;47.044;15.080;2023-02-04T05:38:47;96420.59;;;4.89;56.36
53440;BME280;39333;47.044;15.080;2023-02-04T05:41:14;96420.41;;;4.91;56.43
53440;BME280;39333;47.044;15.080;2023-02-04T05:43:41;96436.34;;;4.89;56.32
53440;BME280;39333;47.044;15.080;2023-02-04T05:46:08;96430.28;;;4.89;56.76
53440;BME280;39333;47.044;15.080;2023-02-04T05:48:36;96444.84;;;4.85;57.12
53440;BME280;39333;47.044;15.080;2023-02-04T05:51:03;96451.94;;;4.84;57.37
53440;BME280;39333;47.044;15.080;2023-02-04T05:53:30;96464.06;;;4.85;57.22
53440;BME280;39333;47.044;15.080;2023-02-04T05:55:56;96455.16;;;4.86;57.76
53440;BME280;39333;47.044;15.080;2023-02-04T05:58:23;96464.44;;;4.89;57.74
53440;BME280;39333;47.044;15.080;2023-02-04T06:00:50;96469.91;;;4.87;57.32
53440;BME280;39333;47.044;15.080;2023-02-04T06:03:17;96463.44;;;4.90;58.06
53440;BME280;39333;47.044;15.080;2023-02-04T06:05:45;96478.00;;;4.86;58.31
53440;BME280;39333;47.044;15.080;2023-02-04T06:08:12;96464.25;;;4.84;57.99
53440;BME280;39333;47.044;15.080;2023-02-04T06:10:41;96474.34;;;4.80;58.01
53440;BME280;39333;47.044;15.080;2023-02-04T06:13:11;96471.91;;;4.79;59.08
53440;BME280;39333;47.044;15.080;2023-02-04T06:15:41;96481.81;;;4.70;59.42
53440;BME280;39333;47.044;15.080;2023-02-04T06:18:08;96490.28;;;4.66;59.61
53440;BME280;39333;47.044;15.080;2023-02-04T06:20:35;96483.78;;;4.62;60.17
53440;BME280;39333;47.044;15.080;2023-02-04T06:23:02;96497.91;;;4.54;61.58
53440;BME280;39333;47.044;15.080;2023-02-04T06:25:28;96483.09;;;4.33;63.21
53440;BME280;39333;47.044;15.080;2023-02-04T06:27:56;96501.22;;;4.21;64.17
53440;BME280;39333;47.044;15.080;2023-02-04T06:30:23;96491.94;;;4.19;64.29
53440;BME280;39333;47.044;15.080;2023-02-04T06:32:50;96493.75;;;4.18;64.35
53440;BME280;39333;47.044;15.080;2023-02-04T06:35:17;96504.81;;;4.14;62.76
53440;BME280;39333;47.044;15.080;2023-02-04T06:37:44;96500.19;;;4.16;62.71
53440;BME280;39333;47.044;15.080;2023-02-04T06:40:11;96507.28;;;4.22;61.99
53440;BME280;39333;47.044;15.080;2023-02-04T06:42:38;96495.16;;;4.21;61.93
53440;BME280;39333;47.044;15.080;2023-02-04T06:45:06;96499.81;;;4.26;59.95
53440;BME280;39333;47.044;15.080;2023-02-04T06:47:33;96516.78;;;4.30;60.18
53440;BME280;39333;47.044;15.080;2023-02-04T06:50:00;96530.97;;;4.35;59.80
53440;BME280;39333;47.044;15.080;2023-02-04T06:52:27;96530.78;;;4.37;59.12
53440;BME280;39333;47.044;15.080;2023-02-04T06:54:54;96529.16;;;4.42;59.21
53440;BME280;39333;47.044;15.080;2023-02-04T06:57:21;96536.41;;;4.40;60.17
53440;BME280;39333;47.044;15.080;2023-02-04T06:59:47;96549.16;;;4.37;59.75
53440;BME280;39333;47.044;15.080;2023-02-04T07:02:15;96565.47;;;4.39;60.15
53440;BME280;39333;47.044;15.080;2023-02-04T07:04:44;96582.03;;;4.33;62.08
53440;BME280;39333;47.044;15.080;2023-02-04T07:07:13;96583.97;;;4.24;63.03
53440;BME280;39333;47.044;15.080;2023-02-04T07:09:40;96602.53;;;4.16;64.49
53440;BME280;39333;47.044;15.080;2023-02-04T07:12:08;96607.69;;;4.03;65.12
53440;BME280;39333;47.044;15.080;2023-02-04T07:14:35;96615.75;;;4.01;66.45
53440;BME280;39333;47.044;15.080;2023-02-04T07:17:02;96624.94;;;3.91;67.07
53440;BME280;39333;47.044;15.080;2023-02-04T07:19:29;96633.41;;;3.93;67.82
53440;BME280;39333;47.044;15.080;2023-02-04T07:21:58;96630.78;;;3.93;68.26
53440;BME280;39333;47.044;15.080;2023-02-04T07:24:25;96638.25;;;3.89;68.66
53440;BME280;39333;47.044;15.080;2023-02-04T07:26:52;96644.63;;;3.80;69.27
53440;BME280;39333;47.044;15.080;2023-02-04T07:29:19;96652.69;;;3.78;70.26
53440;BME280;39333;47.044;15.080;2023-02-04T07:31:52;96656.66;;;3.74;70.59
53440;BME280;39333;47.044;15.080;2023-02-04T07:34:19;96651.50;;;3.81;69.48
53440;BME280;39333;47.044;15.080;2023-02-04T07:36:46;96662.44;;;3.84;70.44
53440;BME280;39333;47.044;15.080;2023-02-04T07:39:13;96661.25;;;3.87;70.83
53440;BME280;39333;47.044;15.080;2023-02-04T07:41:40;96673.03;;;3.98;71.01
53440;BME280;39333;47.044;15.080;2023-02-04T07:44:07;96682.59;;;4.05;69.90
53440;BME280;39333;47.044;15.080;2023-02-04T07:46:34;96702.00;;;4.11;69.56
53440;BME280;39333;47.044;15.080;2023-02-04T07:49:01;96701.13;;;4.04;68.26
53440;BME280;39333;47.044;15.080;2023-02-04T07:51:28;96714.25;;;4.04;67.07
53440;BME280;39333;47.044;15.080;2023-02-04T07:53:55;96719.91;;;4.07;67.34
53440;BME280;39333;47.044;15.080;2023-02-04T07:56:22;96725.16;;;4.07;68.02
53440;BME280;39333;47.044;15.080;2023-02-04T07:58:49;96734.63;;;4.02;67.69
53440;BME280;39333;47.044;15.080;2023-02-04T08:01:16;96728.75;;;4.00;67.27
53440;BME280;39333;47.044;15.080;2023-02-04T08:03:43;96738.06;;;4.02;67.76
53440;BME280;39333;47.044;15.080;2023-02-04T08:06:10;96745.75;;;4.04;68.40
53440;BME280;39333;47.044;15.080;2023-02-04T08:08:37;96760.41;;;3.98;67.86
53440;BME280;39333;47.044;15.080;2023-02-04T08:11:04;96758.72;;;4.12;66.67
53440;BME280;39333;47.044;15.080;2023-02-04T08:13:31;96778.59;;;4.00;69.12
53440;BME280;39333;47.044;15.080;2023-02-04T08:15:58;96779.41;;;4.00;68.56
53440;BME280;39333;47.044;15.080;2023-02-04T08:18:25;96786.84;;;3.97;69.99
53440;BME280;39333;47.044;15.080;2023-02-04T08:20:52;96801.19;;;3.79;71.76
53440;BME280;39333;47.044;15.080;2023-02-04T08:23:19;96818.59;;;3.51;73.75
53440;BME280;39333;47.044;15.080;2023-02-04T08:25:46;96859.56;;;3.23;72.14
53440;BME280;39333;47.044;15.080;2023-02-04T08:28:13;96857.34;;;2.97;74.34
53440;BME280;39333;47.044;15.080;2023-02-04T08:30:39;96844.97;;;2.91;75.28
53440;BME280;39333;47.044;15.080;2023-02-04T08:33:06;96864.03;;;2.62;76.55
53440;BME280;39333;47.044;15.080;2023-02-04T08:35:33;96854.84;;;2.66;77.15
53440;BME280;39333;47.044;15.080;2023-02-04T08:38:00;96863.56;;;2.81;77.56
53440;BME280;39333;47.044;15.080;2023-02-04T08:40:27;96872.59;;;2.93;76.77
53440;BME280;39333;47.044;15.080;2023-02-04T08:42:54;96884.19;;;3.13;76.31
53440;BME280;39333;47.044;15.080;2023-02-04T08:45:21;96884.66;;;3.17;76.11
53440;BME280;39333;47.044;15.080;2023-02-04T08:47:48;96891.06;;;3.00;75.45
53440;BME280;39333;47.044;15.080;2023-02-04T08:50:15;96906.13;;;2.98;75.69
53440;BME280;39333;47.044;15.080;2023-02-04T08:52:42;96897.81;;;2.94;75.12
53440;BME280;39333;47.044;15.080;2023-02-04T08:55:09;96915.88;;;2.89;74.96
53440;BME280;39333;47.044;15.080;2023-02-04T08:57:36;96920.34;;;2.80;74.88
53440;BME280;39333;47.044;15.080;2023-02-04T09:00:03;96916.00;;;2.73;74.97
53440;BME280;39333;47.044;15.080;2023-02-04T09:02:30;96926.13;;;2.76;75.21
53440;BME280;39333;47.044;15.080;2023-02-04T09:04:57;96906.91;;;2.84;73.19
53440;BME280;39333;47.044;15.080;2023-02-04T09:07:24;96920.66;;;3.23;71.93
53440;BME280;39333;47.044;15.080;2023-02-04T09:09:50;96926.72;;;3.53;69.47
53440;BME280;39333;47.044;15.080;2023-02-04T09:12:17;96922.75;;;3.86;63.98
53440;BME280;39333;47.044;15.080;2023-02-04T09:14:44;96924.22;;;4.10;62.22
53440;BME280;39333;47.044;15.080;2023-02-04T09:17:11;96915.72;;;4.44;60.06
53440;BME280;39333;47.044;15.080;2023-02-04T09:19:41;96926.50;;;4.71;57.97
53440;BME280;39333;47.044;15.080;2023-02-04T09:22:08;96927.09;;;4.73;55.36
53440;BME280;39333;47.044;15.080;2023-02-04T09:24:35;96897.72;;;4.84;55.83
53440;BME280;39333;47.044;15.080;2023-02-04T09:27:02;96949.53;;;4.69;55.16
53440;BME280;39333;47.044;15.080;2023-02-04T09:29:28;96934.81;;;4.96;55.48
53440;BME280;39333;47.044;15.080;2023-02-04T09:31:55;96941.06;;;4.95;52.81
53440;BME280;39333;47.044;15.080;2023-02-04T09:34:23;96952.91;;;4.84;52.69
53440;BME280;39333;47.044;15.080;2023-02-04T09:36:50;96947.88;;;4.89;53.53
53440;BME280;39333;47.044;15.080;2023-02-04T09:39:17;96973.03;;;4.98;52.64
53440;BME280;39333;47.044;15.080;2023-02-04T09:41:44;96977.34;;;4.63;52.94
53440;BME280;39333;47.044;15.080;2023-02-04T09:44:22;96978.00;;;4.86;53.43
53440;BME280;39333;47.044;15.080;2023-02-04T09:46:53;96963.63;;;4.89;52.92
53440;BME280;39333;47.044;15.080;2023-02-04T09:49:21;96976.22;;;4.93;52.59
53440;BME280;39333;47.044;15.080;2023-02-04T09:51:49;96969.75;;;4.75;50.91
53440;BME280;39333;47.044;15.080;2023-02-04T09:54:19;96976.28;;;5.00;51.04
53440;BME280;39333;47.044;15.080;2023-02-04T09:56:47;96986.66;;;5.08;50.75
53440;BME280;39333;47.044;15.080;2023-02-04T09:59:17;96987.44;;;5.02;48.52
53440;BME280;39333;47.044;15.080;2023-02-04T10:01:47;96988.81;;;5.19;51.15
53440;BME280;39333;47.044;15.080;2023-02-04T10:04:17;96987.78;;;5.20;47.65
53440;BME280;39333;47.044;15.080;2023-02-04T10:06:44;96982.03;;;5.32;46.82
53440;BME280;39333;47.044;15.080;2023-02-04T10:09:13;96982.75;;;5.47;48.09
53440;BME280;39333;47.044;15.080;2023-02-04T10:11:41;97003.63;;;5.55;46.54
53440;BME280;39333;47.044;15.080;2023-02-04T10:14:14;96999.66;;;5.38;48.32
53440;BME280;39333;47.044;15.080;2023-02-04T10:16:42;96990.53;;;5.61;47.88
53440;BME280;39333;47.044;15.080;2023-02-04T10:19:14;96999.38;;;5.54;47.43
53440;BME280;39333;47.044;15.080;2023-02-04T10:21:43;96997.06;;;5.66;47.12
53440;BME280;39333;47.044;15.080;2023-02-04T10:24:22;97006.69;;;5.58;47.37
53440;BME280;39333;47.044;15.080;2023-02-04T10:26:53;97018.81;;;5.81;45.76
53440;BME280;39333;47.044;15.080;2023-02-04T10:29:22;96984.66;;;5.59;45.58
53440;BME280;39333;47.044;15.080;2023-02-04T10:31:51;97006.47;;;6.09;46.24
53440;BME280;39333;47.044;15.080;2023-02-04T10:34:21;96975.31;;;5.57;45.50
53440;BME280;39333;47.044;15.080;2023-02-04T10:36:54;97004.88;;;5.87;44.88
53440;BME280;39333;47.044;15.080;2023-02-04T10:39:27;96984.66;;;5.59;44.51
53440;BME280;39333;47.044;15.080;2023-02-04T10:41:57;96970.66;;;5.87;45.08
53440;BME280;39333;47.044;15.080;2023-02-04T10:47:05;96987.03;;;5.82;45.79
53440;BME280;39333;47.044;15.080;2023-02-04T10:49:32;96952.50;;;5.92;44.09
53440;BME280;39333;47.044;15.080;2023-02-04T10:52:00;96974.69;;;5.83;46.52
53440;BME280;39333;47.044;15.080;2023-02-04T10:54:34;96978.34;;;5.82;46.07
53440;BME280;39333;47.044;15.080;2023-02-04T10:59:57;96958.69;;;5.50;46.93
53440;BME280;39333;47.044;15.080;2023-02-04T11:02:47;96968.63;;;5.26;45.81
53440;BME280;39333;47.044;15.080;2023-02-04T11:05:20;96951.19;;;5.47;45.09
53440;BME280;39333;47.044;15.080;2023-02-04T11:07:49;96958.50;;;5.51;46.82
53440;BME280;39333;47.044;15.080;2023-02-04T11:10:21;96961.19;;;5.30;47.85
53440;BME280;39333;47.044;15.080;2023-02-04T11:15:47;96979.94;;;5.48;46.83
53440;BME280;39333;47.044;15.080;2023-02-04T11:20:52;96967.31;;;5.65;48.19
53440;BME280;39333;47.044;15.080;2023-02-04T11:28:46;96960.84;;;5.40;45.47
53440;BME280;39333;47.044;15.080;2023-02-04T11:33:48;96976.53;;;5.05;46.03
53440;BME280;39333;47.044;15.080;2023-02-04T11:36:16;96976.41;;;5.41;46.10
53440;BME280;39333;47.044;15.080;2023-02-04T11:38:46;96994.09;;;5.47;45.06
53440;BME280;39333;47.044;15.080;2023-02-04T11:41:31;96984.16;;;5.21;45.24
53440;BME280;39333;47.044;15.080;2023-02-04T11:43:59;96988.19;;;5.45;45.91
53440;BME280;39333;47.044;15.080;2023-02-04T11:46:27;96978.03;;;5.36;44.56
53440;BME280;39333;47.044;15.080;2023-02-04T11:48:56;97001.41;;;5.52;47.73
53440;BME280;39333;47.044;15.080;2023-02-04T11:51:33;97014.50;;;5.24;46.94
53440;BME280;39333;47.044;15.080;2023-02-04T11:54:00;97015.97;;;5.54;46.64
53440;BME280;39333;47.044;15.080;2023-02-04T11:56:30;97026.19;;;5.64;45.52
53440;BME280;39333;47.044;15.080;2023-02-04T11:58:57;97027.34;;;6.17;45.17
53440;BME280;39333;47.044;15.080;2023-02-04T12:01:32;97036.91;;;6.25;44.42
53440;BME280;39333;47.044;15.080;2023-02-04T12:04:02;97045.06;;;6.02;45.02
53440;BME280;39333;47.044;15.080;2023-02-04T12:06:32;97032.06;;;5.66;45.22
53440;BME280;39333;47.044;15.080;2023-02-04T12:09:05;97017.66;;;5.62;45.69
53440;BME280;39333;47.044;15.080;2023-02-04T12:11:32;97030.63;;;5.63;43.48
53440;BME280;39333;47.044;15.080;2023-02-04T12:14:08;97050.13;;;5.48;45.23
53440;BME280;39333;47.044;15.080;2023-02-04T12:16:49;97048.63;;;5.39;42.75
53440;BME280;39333;47.044;15.080;2023-02-04T12:19:19;97044.31;;;5.31;42.93
53440;BME280;39333;47.044;15.080;2023-02-04T12:21:46;97026.00;;;5.44;43.43
53440;BME280;39333;47.044;15.080;2023-02-04T12:24:13;97014.66;;;5.93;43.17
53440;BME280;39333;47.044;15.080;2023-02-04T12:26:40;97027.47;;;6.03;42.61
53440;BME280;39333;47.044;15.080;2023-02-04T12:29:08;97018.50;;;5.69;41.47
53440;BME280;39333;47.044;15.080;2023-02-04T12:31:35;97018.00;;;5.80;42.35
53440;BME280;39333;47.044;15.080;2023-02-04T12:34:02;97011.88;;;5.73;41.22
53440;BME280;39333;47.044;15.080;2023-02-04T12:36:29;97029.00;;;5.90;42.47
53440;BME280;39333;47.044;15.080;2023-02-04T12:38:56;97034.28;;;5.90;44.45
53440;BME280;39333;47.044;15.080;2023-02-04T12:41:28;97069.84;;;5.37;41.80
53440;BME280;39333;47.044;15.080;2023-02-04T12:43:57;97021.19;;;5.05;41.90
53440;BME280;39333;47.044;15.080;2023-02-04T12:46:26;97039.72;;;4.97;45.31
53440;BME280;39333;47.044;15.080;2023-02-04T12:48:53;97060.25;;;5.08;45.44
53440;BME280;39333;47.044;15.080;2023-02-04T12:51:20;97057.19;;;5.26;44.01
53440;BME280;39333;47.044;15.080;2023-02-04T12:53:47;97056.44;;;5.11;42.43
53440;BME280;39333;47.044;15.080;2023-02-04T12:56:14;97018.44;;;4.92;41.94
53440;BME280;39333;47.044;15.080;2023-02-04T12:58:41;97050.34;;;4.89;43.47
53440;BME280;39333;47.044;15.080;2023-02-04T13:01:11;97059.06;;;5.11;42.97
53440;BME280;39333;47.044;15.080;2023-02-04T13:03:38;97089.25;;;5.15;43.02
53440;BME280;39333;47.044;15.080;2023-02-04T13:06:08;97081.66;;;5.05;42.35
53440;BME280;39333;47.044;15.080;2023-02-04T13:08:38;97074.34;;;5.01;44.09
53440;BME280;39333;47.044;15.080;2023-02-04T13:11:05;97091.75;;;5.23;42.10
53440;BME280;39333;47.044;15.080;2023-02-04T13:13:32;97065.03;;;5.19;42.91
53440;BME280;39333;47.044;15.080;2023-02-04T13:16:01;97086.16;;;5.11;42.30
53440;BME280;39333;47.044;15.080;2023-02-04T13:18:42;97083.91;;;5.08;42.12
53440;BME280;39333;47.044;15.080;2023-02-04T13:21:13;97080.44;;;5.44;42.46
53440;BME280;39333;47.044;15.080;2023-02-04T13:23:40;97098.03;;;4.86;43.10
53440;BME280;39333;47.044;15.080;2023-02-04T13:26:07;97089.03;;;4.95;43.22